Terminal Aerodrome Forecast
Issued by NWS

Home | Current Version | Previous Version | Graphics & Text | Print | Product List | Glossary On
Versions: 1 2 3 4 5 6 7 8 9 10 11 12 13 14 15 16 17 18 19 20 21
000
FTUS43 KICT 251740
TAFSLN
TAF
KSLN 251740Z 2518/2618 18012KT P6SM SCT020 BKN050
     FM252300 18013G20KT P6SM VCTS BKN050CB
     FM260400 16007KT P6SM SCT015 BKN050
     FM260700 17010KT P6SM SCT009 BKN015=

USA.gov is the U.S. government's official web portal to all federal, state and local government web resources and services.